Seymour, IN

7:31 AM EDT on July 06, 2015 (GMT -0400)
Reddington | | Change Station
CLOSE
Current Station
Personal Weather Station
Location: Seymour, IN
Elevation: 630 ft
Nearby Weather Stations
Active Advisory: Flood Warning

Elev 630 ft 39.03 °N, 85.84 °W | Updated 10 minutes ago

Partly Cloudy
Partly Cloudy
61.6 °F
Feels Like 61.6 °F
N
0.0
Wind Variable Wind from SSE
Gusts 0.0 mph

Today
High -- | Low -- °F
--% Chance of Precip.
Yesterday
High -- | Low -- °F
Precip. -- in
6:24 AM 9:12 PM
Waning Gibbous, 76% visible
Pressure 30.10 in
Visibility 4.0 miles
Clouds Clear
Dew Point 61 °F
Humidity 98%
Rainfall 0.00 in
Snow Depth Not available.
UV 0 out of 12
Pollen 3.50 out of 12
Air Quality Not available.
Flu Activity Not available.
METAR KBAK 061055Z 00000KT 4SM BR SKC 15/14 A3010

More Conditions Fewer Conditions

Pressure 30.10 in
Visibility 4.0 miles
Clouds Clear
Dew Point 61 °F
Humidity 98%
Rainfall 0.00 in
Snow Depth Not available.
UV 0 out of 12
Pollen 3.50 out of 12
Air Quality Not available.
Flu Activity Not available.
METAR KBAK 061055Z 00000KT 4SM BR SKC 15/14 A3010

More Conditions Fewer Conditions

10-Day Weather Forecast

×

Almanac

Astronomy

Jul. 06, 2015 Rise Set
Actual Time
Civil Twilight
Nautical Twilight
Astronomical Twilight
Moon
Length of Visible Light
Length of Day
Tomorrow will be .
, % of the Moon is Illuminated

Today's Extremes

State Highs State Lows

Community

WunderPhotos

Upload Photos

1,835,538 photos uploaded!

WunderBlogs® & News

Nearby

Air Quality

  Air Quality AQ Index Pollutant
Not available.

Snow Depth

Station Depth Elevation

Earthquake Activity

City Distance Mag. Time & Date
Minimum magnitude displayed is 2.5.

Coastal Water Temperatures

Place Temperature

Stations

Nearby Weather Stations

Station Location Temp. Windchill Dew Point Humidity Wind Precip. Elev Updated Type
                   
Flood Warning
Statement as of 11:58 AM EDT on July 05, 2015

The Flood Warning continues for
the muscatatuck river at Wheeler Hollow.
* Until further notice.
* Flood stage is 16.0 feet.
* Forecast... the river is forecast to have a maximum value of 18.5
feet this afternoon.
* At 18.0 feet... floods area in a few low spots and Woodland areas
along the river. Residential property is not directly at this
point.


Lat... Lon 3878 8591 3878 8603 3880 8615 3876 8618
      3873 8605 3874 8591




1158 am EDT sun Jul 5 2015

The Flood Warning continues for
the East Fork White River at Seymour.
* Until Monday morning.
* At 10:45 am Sunday the stage was 12.1 feet.
* Flood stage is 12.0 feet.
* Minor flooding is occurring and minor flooding is forecast.
* Forecast... the river will continue rising to near 12.3 feet by this
afternoon. The river will fall below flood stage this evening.
* At 12.0 feet... significant agricultural lands begins to flood. High
water affects some local roads.


Lat... Lon 3906 8587 3893 8604 3879 8620 3877 8613
      3886 8599 3905 8583